Terminal Aerodrome Forecast
Issued by NWS Brownsville, TX

Current Version | Previous Version | Text Only | Print | Product List | Glossary Off
Versions: 1 2 3 4 5 6 7 8 9 10 11 12 13 14 15 16 17 18

000
FTUS44 KBRO 250520
TAFHRL
TAF
KHRL 250520Z 2506/2606 15005KT P6SM SCT250
     FM251400 16007KT P6SM SCT030
     FM251600 10013KT P6SM SCT050
     FM260200 15005KT P6SM FEW015=

USA.gov is the U.S. government's official web portal to all federal, state and local government web resources and services.